Time;durP1;ratioP1;P1;durP2;ratioP2;P2;SDS_P1;SDS_P2;PMS_P1;PMS_P2;Temp;Humidity;BMP_temperature;BMP_pressure;BME280_temperature;BME280_humidity;BME280_pressure;Samples;Min_cycle;Max_cycle;Signal;HPM_P1;HPM_P2
2021/07/28 00:00:50;;;;;;;13.08;9.43;;;;;;;23.05;68.75;99471.78;1741108;80;20916;-53
2021/07/28 00:03:16;;;;;;;13.35;8.03;;;;;;;22.99;68.58;99449.92;1740419;80;22142;-55
2021/07/28 00:05:43;;;;;;;18.48;8.28;;;;;;;22.96;68.66;99447.52;1738830;80;21122;-53
2021/07/28 00:08:09;;;;;;;17.52;9.95;;;;;;;22.94;68.68;99450.93;1739162;80;21074;-51
2021/07/28 00:10:36;;;;;;;8.73;7.05;;;;;;;22.92;68.98;99450.22;1748413;80;21057;-52
2021/07/28 00:13:02;;;;;;;10.90;6.90;;;;;;;22.92;69.21;99455.71;1748126;80;21090;-51
2021/07/28 00:15:28;;;;;;;13.40;7.62;;;;;;;22.91;69.27;99459.47;1747649;80;21599;-55
2021/07/28 00:18:01;;;;;;;10.68;8.00;;;;;;;22.90;69.32;99452.25;1748326;80;21104;-55
2021/07/28 00:23:13;;;;;;;12.85;6.97;;;;;;;22.90;69.48;99464.09;1744496;80;20979;-52
2021/07/28 00:23:15;;;;;;;;;;;;;;;22.89;69.36;99460.13;1746744;80;21651;-55
2021/07/28 00:25:47;;;;;;;9.40;6.93;;;;;;;22.88;68.99;99458.44;1748314;80;20328;-53
2021/07/28 00:28:14;;;;;;;13.53;6.85;;;;;;;22.85;69.10;99461.48;1746366;80;20987;-53
2021/07/28 00:30:43;;;;;;;12.85;6.65;;;;;;;22.83;68.93;99467.13;1750315;80;21484;-53
2021/07/28 00:33:10;;;;;;;11.12;6.85;;;;;;;22.83;68.85;99456.16;1750290;80;21355;-54
2021/07/28 00:35:36;;;;;;;10.58;7.15;;;;;;;22.84;68.69;99448.78;1751094;80;21551;-55
2021/07/28 00:38:04;;;;;;;11.65;7.58;;;;;;;22.86;68.73;99461.34;1752788;80;20975;-52
2021/07/28 00:40:30;;;;;;;10.95;8.08;;;;;;;22.89;68.94;99466.48;1751087;80;21708;-51
2021/07/28 00:43:11;;;;;;;14.15;7.97;;;;;;;22.92;69.20;99452.97;1749844;80;21429;-54
2021/07/28 00:45:39;;;;;;;9.03;7.50;;;;;;;22.91;69.28;99449.86;1756265;80;21839;-52
2021/07/28 00:48:08;;;;;;;15.75;9.00;;;;;;;22.89;69.81;99456.88;1749138;80;21114;-55
2021/07/28 00:50:37;;;;;;;9.45;8.35;;;;;;;22.88;70.24;99447.46;1749484;80;21043;-54
2021/07/28 00:53:03;;;;;;;10.00;7.25;;;;;;;22.85;70.72;99438.16;1751104;80;21568;-54
2021/07/28 00:55:33;;;;;;;17.35;8.85;;;;;;;22.81;71.03;99443.09;1750767;80;21078;-51
2021/07/28 00:58:00;;;;;;;11.73;7.55;;;;;;;22.77;71.38;99437.59;1748181;80;22883;-55
2021/07/28 01:00:29;;;;;;;10.18;7.53;;;;;;;22.74;71.53;99433.78;1748967;80;22400;-55
2021/07/28 01:02:56;;;;;;;9.10;7.70;;;;;;;22.71;71.70;99425.86;1746605;80;21654;-51
2021/07/28 01:05:22;;;;;;;11.05;7.83;;;;;;;22.70;71.83;99428.75;1749164;80;21088;-51
2021/07/28 01:07:49;;;;;;;13.08;7.30;;;;;;;22.68;71.92;99422.55;1750953;80;21864;-51
2021/07/28 01:10:15;;;;;;;12.03;7.67;;;;;;;22.65;71.79;99430.58;1747025;80;21134;-52
2021/07/28 01:12:45;;;;;;;14.98;8.33;;;;;;;22.63;71.85;99429.87;1749579;80;21039;-52
2021/07/28 01:15:21;;;;;;;13.78;9.48;;;;;;;22.60;72.06;99430.21;1749428;80;21063;-53
2021/07/28 01:17:40;;;;;;;11.60;8.38;;;;;;;22.57;72.13;99434.63;1750338;80;21106;-50
2021/07/28 01:20:08;;;;;;;10.35;7.92;;;;;;;22.54;72.21;99435.80;1748631;80;21101;-54
2021/07/28 01:22:34;;;;;;;12.20;7.72;;;;;;;22.52;72.18;99447.45;1754538;80;21470;-53
2021/07/28 01:25:01;;;;;;;10.03;8.25;;;;;;;22.47;72.41;99449.79;1746635;80;21086;-51
2021/07/28 01:27:28;;;;;;;9.08;7.72;;;;;;;22.45;72.64;99446.37;1749973;80;21071;-51
2021/07/28 01:29:54;;;;;;;9.73;6.92;;;;;;;22.42;72.73;99449.41;1677953;80;21102;-52
2021/07/28 01:32:21;;;;;;;9.93;6.65;;;;;;;22.41;72.76;99444.94;1752312;80;21095;-52
2021/07/28 01:34:47;;;;;;;10.65;7.85;;;;;;;22.40;72.62;99433.61;1753388;80;21996;-55
2021/07/28 01:37:14;;;;;;;8.58;7.75;;;;;;;22.39;72.48;99429.14;1751344;80;21067;-55
2021/07/28 01:39:41;;;;;;;9.93;7.85;;;;;;;22.40;72.45;99431.38;1746570;80;21386;-51
2021/07/28 01:42:07;;;;;;;8.83;7.37;;;;;;;22.37;72.33;99433.09;1751573;80;21047;-51
2021/07/28 01:44:36;;;;;;;11.90;6.97;;;;;;;22.35;72.41;99425.52;1750397;80;21059;-50
2021/07/28 01:47:02;;;;;;;8.55;6.53;;;;;;;22.33;72.58;99427.04;1748147;80;21892;-51
2021/07/28 01:49:28;;;;;;;11.38;6.92;;;;;;;22.33;72.66;99420.19;1751951;80;21441;-52
2021/07/28 01:51:54;;;;;;;8.75;5.95;;;;;;;22.31;72.62;99414.50;1750650;80;21706;-53
2021/07/28 01:54:20;;;;;;;13.58;6.30;;;;;;;22.29;72.58;99419.30;1751527;80;21161;-52
2021/07/28 01:56:47;;;;;;;9.10;5.20;;;;;;;22.28;72.71;99414.83;1751150;80;21089;-55
2021/07/28 01:59:15;;;;;;;10.58;6.40;;;;;;;22.28;72.76;99412.09;1747337;80;21081;-57
2021/07/28 02:01:42;;;;;;;7.92;6.95;;;;;;;22.28;72.87;99395.64;1753646;80;21081;-57
2021/07/28 02:04:08;;;;;;;9.03;7.87;;;;;;;22.28;73.01;99393.76;1749551;80;21119;-57
2021/07/28 02:06:36;;;;;;;10.53;8.18;;;;;;;22.29;73.31;99403.68;1748958;80;21066;-55
2021/07/28 02:09:02;;;;;;;8.95;8.03;;;;;;;22.26;73.27;99395.79;1748610;80;21120;-55
2021/07/28 02:11:29;;;;;;;8.60;6.15;;;;;;;22.25;73.38;99400.91;1756162;80;21166;-55
2021/07/28 02:13:55;;;;;;;9.40;6.90;;;;;;;22.22;73.60;99408.07;1749012;80;21085;-57
2021/07/28 02:16:21;;;;;;;7.78;7.03;;;;;;;22.20;73.79;99401.36;1747720;80;21431;-56
2021/07/28 02:18:48;;;;;;;11.65;7.20;;;;;;;22.16;73.99;99389.52;1747805;80;22477;-59
2021/07/28 02:21:14;;;;;;;8.33;6.53;;;;;;;22.13;74.30;99387.94;1746964;80;21085;-58
2021/07/28 02:23:42;;;;;;;9.70;7.67;;;;;;;22.11;74.40;99391.87;1749065;80;21118;-57
2021/07/28 02:26:08;;;;;;;10.93;6.92;;;;;;;22.08;74.43;99396.28;1751871;80;21580;-54
2021/07/28 02:28:34;;;;;;;7.45;6.90;;;;;;;22.03;74.56;99390.42;1748311;80;21055;-57
2021/07/28 02:31:01;;;;;;;9.25;6.35;;;;;;;22.00;74.71;99388.84;1747232;80;21027;-54
2021/07/28 02:33:27;;;;;;;8.70;6.60;;;;;;;21.96;74.84;99396.11;1749554;80;21106;-57
2021/07/28 02:35:53;;;;;;;9.23;6.80;;;;;;;21.94;74.95;99398.17;1749237;80;21748;-58
2021/07/28 02:38:19;;;;;;;9.85;6.78;;;;;;;21.92;75.10;99391.97;1750646;80;21455;-57
2021/07/28 02:40:46;;;;;;;10.80;7.05;;;;;;;21.90;75.35;99390.24;1750646;80;22284;-57
2021/07/28 02:43:13;;;;;;;8.23;6.05;;;;;;;21.87;75.44;99397.39;1747879;80;22485;-56
2021/07/28 02:45:39;;;;;;;9.68;6.70;;;;;;;21.87;75.71;99408.34;1747826;80;21066;-59
2021/07/28 02:48:06;;;;;;;8.55;6.33;;;;;;;21.88;75.98;99402.36;1753069;80;21078;-59
2021/07/28 02:50:33;;;;;;;11.55;6.55;;;;;;;21.83;75.95;99391.88;1749876;80;21058;-54
2021/07/28 02:52:59;;;;;;;13.90;7.17;;;;;;;21.78;75.93;99383.24;1750307;80;21039;-58
2021/07/28 02:55:25;;;;;;;13.30;6.90;;;;;;;21.77;76.00;99388.91;1749660;80;21113;-55
2021/07/28 02:57:51;;;;;;;9.00;6.35;;;;;;;21.76;76.12;99385.80;1749782;80;21279;-57
2021/07/28 03:00:18;;;;;;;9.93;6.95;;;;;;;21.78;76.36;99392.83;1750538;80;21474;-56
2021/07/28 03:02:44;;;;;;;8.53;6.53;;;;;;;21.81;76.58;99392.53;1750091;80;21134;-55
2021/07/28 03:05:14;;;;;;;10.32;6.72;;;;;;;21.86;76.63;99401.68;1747517;80;22570;-55
2021/07/28 03:07:39;;;;;;;8.08;6.37;;;;;;;21.89;76.65;99421.91;1754179;80;20990;-56
2021/07/28 03:10:07;;;;;;;14.35;7.12;;;;;;;21.90;76.56;99418.15;1732801;80;21306;-55
2021/07/28 03:12:33;;;;;;;12.53;6.45;;;;;;;21.90;76.47;99427.23;1714529;81;20957;-56
2021/07/28 03:14:59;;;;;;;8.80;6.85;;;;;;;21.90;76.31;99434.09;1716519;81;21368;-56
2021/07/28 03:17:25;;;;;;;9.55;6.35;;;;;;;21.89;76.08;99429.61;1716702;81;21405;-56
2021/07/28 03:19:52;;;;;;;7.08;6.00;;;;;;;21.88;75.99;99434.73;1713534;81;21541;-57
2021/07/28 03:22:18;;;;;;;8.08;6.87;;;;;;;21.89;76.11;99438.34;1714977;81;21141;-55
2021/07/28 03:24:44;;;;;;;7.97;6.03;;;;;;;21.89;76.20;99436.47;1716203;81;21080;-57
2021/07/28 03:27:11;;;;;;;6.65;5.78;;;;;;;21.89;76.19;99443.31;1713242;81;21072;-58
2021/07/28 03:29:37;;;;;;;10.32;7.05;;;;;;;21.92;76.26;99450.88;1714589;81;21050;-55
2021/07/28 03:32:05;;;;;;;8.33;7.53;;;;;;;21.95;76.30;99457.44;1711164;81;21551;-55
2021/07/28 03:34:31;;;;;;;8.43;7.08;;;;;;;21.97;76.25;99467.72;1718525;81;21775;-58
2021/07/28 03:36:57;;;;;;;8.60;6.75;;;;;;;21.97;76.26;99477.31;1717888;82;21494;-57
2021/07/28 03:39:24;;;;;;;7.50;6.85;;;;;;;21.98;76.38;99475.82;1716688;81;21133;-58
2021/07/28 03:41:50;;;;;;;14.53;6.97;;;;;;;22.01;76.50;99478.77;1718800;81;21138;-55
2021/07/28 03:44:16;;;;;;;8.85;6.70;;;;;;;22.02;76.66;99486.85;1714423;81;21150;-55
2021/07/28 03:46:43;;;;;;;18.55;7.22;;;;;;;22.07;76.67;99485.00;1713973;82;21146;-58
2021/07/28 03:49:09;;;;;;;7.37;6.78;;;;;;;22.11;76.53;99473.59;1715940;81;21813;-55
2021/07/28 03:51:36;;;;;;;7.60;6.83;;;;;;;22.14;76.56;99459.56;1712773;81;21556;-55
2021/07/28 03:54:02;;;;;;;10.50;6.65;;;;;;;22.16;76.41;99453.42;1710717;81;22894;-58
2021/07/28 03:56:29;;;;;;;12.03;7.22;;;;;;;22.21;76.37;99455.18;1714028;81;21084;-56
2021/07/28 03:58:56;;;;;;;8.48;6.12;;;;;;;22.28;76.12;99451.34;1709347;81;21081;-56
2021/07/28 04:01:24;;;;;;;7.95;7.17;;;;;;;22.33;75.97;99449.48;1714689;81;21128;-56
2021/07/28 04:03:50;;;;;;;11.97;7.37;;;;;;;22.37;76.11;99450.91;1712753;81;21537;-57
2021/07/28 04:06:17;;;;;;;9.15;6.35;;;;;;;22.42;75.79;99452.16;1715144;81;21088;-57
2021/07/28 04:08:43;;;;;;;10.68;7.47;;;;;;;22.43;75.62;99453.88;1714975;81;21083;-58
2021/07/28 04:11:09;;;;;;;9.18;6.37;;;;;;;22.45;75.71;99467.44;1732668;80;21826;-58
2021/07/28 04:13:36;;;;;;;11.68;7.17;;;;;;;22.46;75.81;99472.74;1731665;80;21682;-55
2021/07/28 04:16:02;;;;;;;9.25;5.58;;;;;;;22.48;76.00;99463.86;1737440;80;21056;-58
2021/07/28 04:18:28;;;;;;;9.08;6.53;;;;;;;22.49;75.88;99457.36;1736408;80;21674;-56
2021/07/28 04:20:55;;;;;;;11.22;6.17;;;;;;;22.51;75.75;99451.22;1734037;80;21099;-55
2021/07/28 04:23:21;;;;;;;6.70;6.17;;;;;;;22.54;75.68;99454.99;1732502;80;21040;-56
2021/07/28 04:25:48;;;;;;;7.42;6.83;;;;;;;22.56;75.75;99446.61;1740188;80;21154;-58
2021/07/28 04:28:14;;;;;;;10.05;7.92;;;;;;;22.58;75.57;99449.56;1739570;80;20994;-58
2021/07/28 04:30:40;;;;;;;11.18;8.00;;;;;;;22.60;75.86;99428.33;1735977;80;22182;-59
2021/07/28 04:33:07;;;;;;;8.20;7.30;;;;;;;22.62;76.00;99429.05;1737005;80;21995;-57
2021/07/28 04:35:34;;;;;;;11.97;6.53;;;;;;;22.67;76.45;99431.80;1736314;80;21126;-59
2021/07/28 04:38:01;;;;;;;12.95;5.95;;;;;;;22.71;76.35;99423.63;1731976;80;21141;-58
2021/07/28 04:40:27;;;;;;;8.15;6.62;;;;;;;22.74;76.58;99427.39;1733551;80;21107;-57
2021/07/28 04:42:53;;;;;;;8.98;6.15;;;;;;;22.77;76.78;99417.52;1736645;80;21137;-58
2021/07/28 04:45:19;;;;;;;7.30;6.30;;;;;;;22.83;76.99;99423.22;1736162;80;21078;-56
2021/07/28 04:47:46;;;;;;;6.33;5.72;;;;;;;22.88;76.86;99423.59;1731085;80;21110;-58
2021/07/28 04:50:12;;;;;;;9.23;7.65;;;;;;;22.91;76.63;99427.91;1732869;80;21502;-59
2021/07/28 04:52:40;;;;;;;7.42;6.12;;;;;;;22.95;76.52;99432.08;1729175;80;21133;-57
2021/07/28 04:55:08;;;;;;;9.08;7.08;;;;;;;22.99;76.84;99427.46;1733627;80;21102;-57
2021/07/28 04:57:34;;;;;;;6.00;5.50;;;;;;;23.05;77.29;99436.09;1736412;80;21173;-60
2021/07/28 05:00:01;;;;;;;9.90;7.30;;;;;;;23.09;77.36;99442.45;1700857;82;21079;-59
2021/07/28 05:02:27;;;;;;;6.35;5.53;;;;;;;23.11;77.29;99440.42;1736058;80;22388;-57
2021/07/28 05:04:54;;;;;;;8.98;6.83;;;;;;;23.14;77.18;99441.45;1732971;80;21126;-57
2021/07/28 05:07:20;;;;;;;6.72;6.03;;;;;;;23.20;77.08;99450.95;1733255;80;21070;-57
2021/07/28 05:09:46;;;;;;;5.47;5.08;;;;;;;23.23;77.04;99450.09;1728643;80;21195;-56
2021/07/28 05:12:13;;;;;;;9.70;5.85;;;;;;;23.28;77.02;99453.74;1709583;82;21062;-57
2021/07/28 05:14:39;;;;;;;8.43;5.90;;;;;;;23.33;76.94;99449.98;1711188;82;21552;-58
2021/07/28 05:17:06;;;;;;;9.28;6.92;;;;;;;23.39;76.61;99450.73;1710725;82;21138;-57
2021/07/28 05:19:32;;;;;;;9.53;7.25;;;;;;;23.45;76.35;99447.33;1715387;82;21069;-58
2021/07/28 05:24:10;;;;;;;7.33;6.62;;;;;;;23.66;75.75;99443.67;1791716;78;22711;-58
2021/07/28 05:26:36;;;;;;;11.30;6.67;;;;;;;23.74;75.67;99445.08;1768370;78;21370;-59
2021/07/28 05:29:03;;;;;;;8.53;7.20;;;;;;;23.88;75.00;99439.49;1765921;79;21148;-60
2021/07/28 05:31:29;;;;;;;12.93;6.42;;;;;;;24.00;73.70;99434.53;1771716;78;20977;-58
2021/07/28 05:33:56;;;;;;;6.75;4.78;;;;;;;24.12;73.24;99427.19;1760106;79;20941;-58
2021/07/28 05:36:22;;;;;;;8.08;4.00;;;;;;;24.23;71.93;99422.44;1767827;78;21057;-59
2021/07/28 05:38:48;;;;;;;8.23;3.42;;;;;;;24.32;71.32;99415.41;1768439;79;21093;-58
2021/07/28 05:41:15;;;;;;;9.23;3.90;;;;;;;24.40;70.57;99414.56;1765965;79;23356;-58
2021/07/28 05:43:41;;;;;;;5.65;3.42;;;;;;;24.45;69.92;99413.52;1739616;80;22237;-57
2021/07/28 05:46:07;;;;;;;7.58;3.65;;;;;;;24.51;69.56;99410.08;1740276;80;20969;-60
2021/07/28 05:48:34;;;;;;;6.22;3.85;;;;;;;24.57;69.18;99412.17;1742899;80;21061;-58
2021/07/28 05:51:00;;;;;;;6.10;3.80;;;;;;;24.62;68.30;99407.00;1736284;80;21550;-57
2021/07/28 05:53:26;;;;;;;7.33;4.45;;;;;;;24.71;68.09;99407.34;1744274;80;21065;-59
2021/07/28 05:55:53;;;;;;;8.30;4.05;;;;;;;24.78;67.81;99403.38;1710127;81;21158;-59
2021/07/28 05:58:21;;;;;;;5.25;2.90;;;;;;;24.85;67.24;99403.89;1735183;80;21621;-57
2021/07/28 06:00:48;;;;;;;5.40;3.25;;;;;;;24.93;66.66;99396.68;1746109;80;21373;-57
2021/07/28 06:03:15;;;;;;;6.58;3.33;;;;;;;25.00;66.08;99392.23;1742358;80;20962;-59
2021/07/28 06:05:41;;;;;;;6.83;3.22;;;;;;;25.06;65.39;99397.02;1741637;80;21157;-59
2021/07/28 06:08:08;;;;;;;10.88;3.27;;;;;;;25.12;65.23;99388.91;1743401;80;20981;-56
2021/07/28 06:10:34;;;;;;;6.12;2.80;;;;;;;25.19;65.12;99387.69;1736751;80;21107;-60
2021/07/28 06:13:02;;;;;;;5.92;3.25;;;;;;;25.26;64.63;99392.31;1733465;80;21424;-59
2021/07/28 06:15:29;;;;;;;8.55;4.05;;;;;;;25.32;64.57;99392.66;1743123;80;21124;-59
2021/07/28 06:17:56;;;;;;;7.33;2.85;;;;;;;25.37;64.58;99386.09;1745633;80;22247;-57
2021/07/28 06:20:23;;;;;;;5.00;3.40;;;;;;;25.43;64.68;99384.89;1740795;80;21472;-58
2021/07/28 06:22:49;;;;;;;5.10;2.92;;;;;;;25.50;64.65;99388.64;1737940;80;21051;-58
2021/07/28 06:25:15;;;;;;;6.22;3.55;;;;;;;25.55;64.20;99386.72;1742182;80;21037;-57
2021/07/28 06:27:41;;;;;;;8.98;4.42;;;;;;;25.61;64.42;99393.78;1735970;80;21561;-56
2021/07/28 06:30:09;;;;;;;7.45;3.87;;;;;;;25.68;64.10;99386.20;1737119;80;21760;-56
2021/07/28 06:32:35;;;;;;;6.62;4.20;;;;;;;25.76;64.28;99388.40;1741262;81;20998;-58
2021/07/28 06:35:02;;;;;;;5.95;3.90;;;;;;;25.83;63.85;99383.87;1735048;80;21474;-56
2021/07/28 06:37:30;;;;;;;8.18;3.65;;;;;;;25.87;63.44;99381.59;1735476;80;21068;-57
2021/07/28 06:39:56;;;;;;;8.40;3.72;;;;;;;25.88;63.25;99376.43;1740828;80;21630;-56
2021/07/28 06:42:22;;;;;;;6.40;2.70;;;;;;;25.88;63.10;99377.81;1737274;80;21101;-55
2021/07/28 06:44:49;;;;;;;8.75;4.15;;;;;;;25.90;62.80;99378.49;1732198;80;21442;-56
2021/07/28 06:47:16;;;;;;;2.67;2.47;;;;;;;25.89;62.83;99379.01;1731736;80;21100;-59
2021/07/28 06:49:42;;;;;;;4.95;3.83;;;;;;;25.91;62.68;99374.70;1732581;80;21758;-58
2021/07/28 06:52:09;;;;;;;7.85;4.33;;;;;;;25.97;62.76;99377.59;1737869;80;21128;-57
2021/07/28 06:54:35;;;;;;;5.80;3.42;;;;;;;26.06;62.58;99376.16;1729254;80;21500;-57
2021/07/28 06:57:03;;;;;;;7.90;4.20;;;;;;;26.13;62.53;99376.63;1736033;80;21124;-57
2021/07/28 06:59:29;;;;;;;7.30;4.15;;;;;;;26.22;62.33;99377.42;1726905;80;21164;-55
2021/07/28 07:01:56;;;;;;;8.28;4.60;;;;;;;26.30;62.04;99386.53;1730288;81;21157;-58
2021/07/28 07:04:22;;;;;;;13.15;5.50;;;;;;;26.39;61.99;99388.72;1731153;80;21432;-57
2021/07/28 07:06:48;;;;;;;7.70;5.22;;;;;;;26.45;61.73;99397.66;1731551;80;22187;-58
2021/07/28 07:09:15;;;;;;;12.20;5.00;;;;;;;26.49;61.37;99400.38;1732636;80;21112;-56
2021/07/28 07:11:41;;;;;;;11.57;4.53;;;;;;;26.55;61.32;99405.67;1731885;80;21456;-56
2021/07/28 07:14:08;;;;;;;9.48;5.65;;;;;;;26.62;61.60;99404.77;1730667;80;21479;-58
2021/07/28 07:16:36;;;;;;;6.45;4.37;;;;;;;26.67;61.58;99408.34;1732760;80;21511;-55
2021/07/28 07:19:04;;;;;;;4.50;3.58;;;;;;;26.71;61.41;99401.42;1729240;80;22174;-57
2021/07/28 07:21:32;;;;;;;7.35;3.70;;;;;;;26.75;61.33;99406.37;1733193;80;21304;-56
2021/07/28 07:23:58;;;;;;;7.58;3.83;;;;;;;26.82;60.75;99404.24;1723554;81;21077;-58
2021/07/28 07:26:24;;;;;;;5.65;4.25;;;;;;;26.88;60.95;99411.80;1726712;80;20928;-57
2021/07/28 07:28:50;;;;;;;7.85;3.90;;;;;;;26.95;60.59;99415.05;1727402;81;21497;-56
2021/07/28 07:31:17;;;;;;;8.45;5.10;;;;;;;27.03;59.98;99420.49;1729935;80;21186;-58
2021/07/28 07:33:43;;;;;;;9.20;4.85;;;;;;;27.12;60.09;99417.13;1731602;80;21099;-59
2021/07/28 07:36:14;;;;;;;7.28;3.98;;;;;;;27.18;60.08;99416.37;1730550;80;21156;-57
2021/07/28 07:38:42;;;;;;;5.55;4.20;;;;;;;27.24;59.90;99417.51;1726746;80;21066;-61
2021/07/28 07:41:09;;;;;;;4.50;4.03;;;;;;;27.30;59.41;99409.87;1731602;80;21117;-59
2021/07/28 07:43:36;;;;;;;8.00;4.70;;;;;;;27.35;59.35;99407.37;1728693;80;21148;-58
2021/07/28 07:46:02;;;;;;;11.43;5.15;;;;;;;27.40;59.38;99411.80;1725494;80;21045;-57
2021/07/28 07:48:29;;;;;;;8.48;5.55;;;;;;;27.44;59.28;99417.30;1726343;80;21117;-56
2021/07/28 07:50:55;;;;;;;7.97;5.17;;;;;;;27.45;59.30;99421.27;1729757;80;21062;-57
2021/07/28 07:53:21;;;;;;;6.75;4.87;;;;;;;27.49;58.87;99421.72;1723571;80;21093;-58
2021/07/28 07:55:48;;;;;;;7.03;4.65;;;;;;;27.53;59.35;99411.16;1724594;80;22907;-57
2021/07/28 07:58:14;;;;;;;11.70;4.95;;;;;;;27.60;59.33;99412.13;1725655;80;21507;-57
2021/07/28 08:00:40;;;;;;;11.10;4.78;;;;;;;27.64;58.68;99411.58;1728707;81;21058;-62
2021/07/28 08:03:06;;;;;;;9.80;5.47;;;;;;;27.67;58.26;99407.03;1725689;80;21053;-57
2021/07/28 08:05:34;;;;;;;7.75;4.40;;;;;;;27.73;58.51;99411.78;1722899;80;21069;-56
2021/07/28 08:08:00;;;;;;;5.62;3.17;;;;;;;27.81;58.50;99415.00;1723986;80;22417;-59
2021/07/28 08:10:28;;;;;;;9.93;4.55;;;;;;;27.89;58.28;99409.88;1727821;80;21722;-57
2021/07/28 08:12:55;;;;;;;8.90;5.28;;;;;;;27.96;58.22;99410.82;1716655;81;21030;-59
2021/07/28 08:15:23;;;;;;;10.03;4.37;;;;;;;28.04;57.52;99421.77;1722744;81;21037;-56
2021/07/28 08:17:49;;;;;;;6.35;4.87;;;;;;;28.09;56.74;99417.89;1721094;80;21096;-58
2021/07/28 08:20:16;;;;;;;9.03;5.10;;;;;;;28.14;56.67;99410.73;1726579;80;21136;-59
2021/07/28 08:22:42;;;;;;;7.40;4.95;;;;;;;28.18;56.23;99411.22;1727044;80;21104;-59
2021/07/28 08:25:09;;;;;;;7.70;4.58;;;;;;;28.21;56.90;99413.09;1712940;81;21046;-58
2021/07/28 08:27:35;;;;;;;5.00;3.30;;;;;;;28.28;57.61;99409.00;1715880;81;21084;-61
2021/07/28 08:30:02;;;;;;;4.97;3.58;;;;;;;28.36;56.67;99409.41;1690480;81;21168;-59
2021/07/28 08:32:29;;;;;;;10.05;4.90;;;;;;;28.41;56.17;99408.31;1714167;81;22430;-58
2021/07/28 08:34:55;;;;;;;7.22;3.77;;;;;;;28.44;56.14;99409.28;1714277;81;21470;-59
2021/07/28 08:37:21;;;;;;;6.12;3.47;;;;;;;28.48;56.68;99412.00;1717060;81;21728;-60
2021/07/28 08:39:48;;;;;;;6.70;4.37;;;;;;;28.52;55.80;99405.85;1714728;81;21057;-58
2021/07/28 08:42:14;;;;;;;10.00;4.62;;;;;;;28.57;55.74;99410.29;1714591;81;21061;-57
2021/07/28 08:44:41;;;;;;;4.20;3.65;;;;;;;28.61;55.65;99400.52;1673670;81;21108;-58
2021/07/28 08:47:07;;;;;;;5.92;4.22;;;;;;;28.65;55.90;99394.06;1725188;81;21177;-55
2021/07/28 08:49:34;;;;;;;4.10;3.30;;;;;;;28.69;56.61;99397.28;1713874;81;21119;-61
2021/07/28 08:52:02;;;;;;;5.05;4.67;;;;;;;28.72;56.46;99396.89;1721946;81;21552;-62
2021/07/28 08:54:29;;;;;;;12.23;4.87;;;;;;;28.78;55.86;99395.59;1716555;81;21466;-58
2021/07/28 08:56:56;;;;;;;4.50;3.90;;;;;;;28.83;55.86;99393.11;1718156;81;21081;-58
2021/07/28 08:59:32;;;;;;;6.17;3.50;;;;;;;28.87;55.55;99388.86;1722119;81;21065;-57
2021/07/28 09:02:00;;;;;;;9.88;4.62;;;;;;;28.94;55.67;99394.45;1717285;81;20975;-61
2021/07/28 09:04:27;;;;;;;5.58;4.50;;;;;;;29.00;55.51;99385.36;1717123;81;20985;-60
2021/07/28 09:06:54;;;;;;;6.03;4.03;;;;;;;29.07;55.27;99391.80;1717354;81;20938;-59
2021/07/28 09:09:21;;;;;;;3.75;3.37;;;;;;;29.13;55.05;99389.60;1724669;81;21049;-60
2021/07/28 09:12:01;;;;;;;5.97;3.65;;;;;;;29.15;55.05;99397.19;1721746;81;20904;-59
2021/07/28 09:14:35;;;;;;;22.00;4.53;;;;;;;29.18;54.95;99391.23;1715773;81;20954;-60
2021/07/28 09:17:15;;;;;;;5.15;2.75;;;;;;;29.23;54.01;99381.80;1716899;81;20931;-60
2021/07/28 09:19:46;;;;;;;5.12;2.55;;;;;;;29.27;53.19;99377.55;1715381;81;20982;-57
2021/07/28 09:22:14;;;;;;;3.87;2.70;;;;;;;29.36;54.25;99379.66;1720145;81;21349;-59
2021/07/28 09:24:41;;;;;;;6.00;3.77;;;;;;;29.45;53.87;99385.37;1718808;81;21398;-58
2021/07/28 09:27:07;;;;;;;6.60;3.80;;;;;;;29.51;52.73;99385.97;1715939;81;21504;-61
2021/07/28 09:29:38;;;;;;;8.25;4.30;;;;;;;29.55;52.63;99390.55;1714581;81;20983;-57
2021/07/28 09:32:07;;;;;;;5.25;3.60;;;;;;;29.55;52.30;99380.31;1721481;81;20951;-61
2021/07/28 09:34:37;;;;;;;4.42;3.75;;;;;;;29.57;52.39;99385.66;1719926;81;21610;-58
2021/07/28 09:37:14;;;;;;;4.60;2.42;;;;;;;29.60;52.27;99379.16;1717223;81;21437;-59
2021/07/28 09:39:45;;;;;;;5.33;2.60;;;;;;;29.63;51.81;99381.53;1700408;81;21351;-58
2021/07/28 09:42:15;;;;;;;7.60;2.83;;;;;;;29.66;52.31;99377.50;1711992;81;21399;-61
2021/07/28 09:44:45;;;;;;;7.92;3.92;;;;;;;29.70;52.27;99376.87;1714857;81;21516;-58
2021/07/28 09:47:14;;;;;;;10.72;4.05;;;;;;;29.79;51.80;99378.08;1712445;81;21105;-59
2021/07/28 09:49:48;;;;;;;8.18;3.52;;;;;;;29.79;51.99;99372.53;1716639;81;21120;-57
2021/07/28 09:52:26;;;;;;;5.62;2.83;;;;;;;29.78;51.92;99368.05;1716045;81;20973;-58
2021/07/28 09:54:57;;;;;;;4.87;2.72;;;;;;;29.82;51.07;99359.65;1713603;81;21100;-60
2021/07/28 09:57:25;;;;;;;4.30;2.75;;;;;;;29.86;50.91;99363.73;1714024;81;21516;-60
2021/07/28 10:00:08;;;;;;;7.65;2.40;;;;;;;29.92;51.42;99369.30;1716586;81;22271;-56
2021/07/28 10:02:33;;;;;;;5.28;2.47;;;;;;;29.97;51.13;99364.01;1716854;81;21086;-59
2021/07/28 10:05:01;;;;;;;6.10;3.40;;;;;;;30.01;50.63;99359.77;1717270;81;21037;-62
2021/07/28 10:07:30;;;;;;;3.37;2.27;;;;;;;30.01;50.27;99359.77;1725141;81;20926;-59
2021/07/28 10:10:07;;;;;;;3.60;2.12;;;;;;;30.01;49.92;99358.38;1714634;81;21033;-61
2021/07/28 10:12:36;;;;;;;2.27;2.08;;;;;;;29.98;48.95;99351.84;1718350;81;21108;-57
2021/07/28 10:15:08;;;;;;;6.20;2.67;;;;;;;30.00;48.28;99350.26;1713216;81;21112;-62
2021/07/28 10:17:40;;;;;;;5.67;2.47;;;;;;;29.94;48.83;99346.37;1715695;81;21088;-56
2021/07/28 10:20:09;;;;;;;7.28;2.33;;;;;;;29.92;49.48;99348.50;1716986;81;21081;-57
2021/07/28 10:22:36;;;;;;;6.85;2.37;;;;;;;29.93;49.76;99343.27;1715612;81;20934;-61
2021/07/28 10:25:07;;;;;;;4.37;3.22;;;;;;;29.95;48.98;99345.31;1719407;80;21144;-60
2021/07/28 10:27:50;;;;;;;2.95;1.98;;;;;;;30.02;49.10;99350.38;1724942;81;21500;-59
2021/07/28 10:30:22;;;;;;;5.12;2.33;;;;;;;30.08;49.18;99335.66;1723578;81;21117;-57
2021/07/28 10:32:48;;;;;;;3.10;1.80;;;;;;;30.18;48.67;99344.13;1721498;81;21292;-60
2021/07/28 10:35:28;;;;;;;5.05;2.35;;;;;;;30.22;48.73;99348.17;1706053;81;21096;-61
2021/07/28 10:38:01;;;;;;;2.00;1.80;;;;;;;30.24;47.83;99352.98;1728165;80;21570;-57
2021/07/28 10:40:37;;;;;;;2.55;1.85;;;;;;;30.31;47.37;99344.14;1724253;80;21762;-63
2021/07/28 10:43:03;;;;;;;2.25;1.70;;;;;;;30.34;47.10;99341.81;1723808;80;21492;-59
2021/07/28 10:45:55;;;;;;;3.70;1.72;;;;;;;30.29;46.90;99346.27;1724346;81;21048;-64
2021/07/28 10:48:54;;;;;;;2.55;1.87;;;;;;;30.26;46.51;99346.17;1720658;81;21066;-61
2021/07/28 10:51:51;;;;;;;2.05;1.20;;;;;;;30.19;46.58;99348.61;1725631;80;21063;-64
2021/07/28 10:54:19;;;;;;;4.22;1.92;;;;;;;30.20;46.00;99340.61;1722248;80;21776;-57
2021/07/28 10:57:05;;;;;;;5.12;1.50;;;;;;;30.19;47.65;99343.06;1719175;81;21069;-62
2021/07/28 10:59:42;;;;;;;6.00;1.98;;;;;;;30.22;47.70;99336.53;1724096;80;21101;-56
2021/07/28 11:02:10;;;;;;;5.53;1.85;;;;;;;30.27;47.03;99338.70;1722954;81;21563;-58
2021/07/28 11:04:37;;;;;;;4.62;2.95;;;;;;;30.33;46.50;99324.83;1721598;81;21142;-55
2021/07/28 11:07:03;;;;;;;5.75;1.87;;;;;;;30.35;47.31;99331.03;1721381;81;21105;-60
2021/07/28 11:09:30;;;;;;;7.17;1.92;;;;;;;30.37;46.91;99331.65;1724819;80;21061;-60
2021/07/28 11:11:58;;;;;;;4.75;1.60;;;;;;;30.41;46.40;99323.77;1723718;80;21117;-57
2021/07/28 11:14:26;;;;;;;5.75;2.10;;;;;;;30.43;46.64;99318.33;1725121;81;22300;-59
2021/07/28 11:16:52;;;;;;;2.85;1.82;;;;;;;30.49;46.93;99323.55;1722305;81;21466;-59
2021/07/28 11:19:20;;;;;;;2.50;1.45;;;;;;;30.51;46.46;99321.96;1730709;80;21049;-61
2021/07/28 11:21:47;;;;;;;4.50;1.55;;;;;;;30.54;46.57;99319.62;1724078;81;21129;-63
2021/07/28 11:24:14;;;;;;;2.47;1.60;;;;;;;30.57;46.04;99315.05;1724740;81;21302;-60
2021/07/28 11:26:41;;;;;;;3.15;1.75;;;;;;;30.60;45.45;99326.28;1727563;81;21989;-58
2021/07/28 11:29:19;;;;;;;2.12;1.70;;;;;;;30.58;45.44;99322.31;1722964;80;22526;-61
2021/07/28 11:31:47;;;;;;;2.00;1.60;;;;;;;30.53;44.78;99312.92;1722339;81;21101;-60
2021/07/28 11:34:21;;;;;;;4.25;2.40;;;;;;;30.41;45.43;99316.29;1726442;80;21022;-59
2021/07/28 11:37:03;;;;;;;3.87;1.60;;;;;;;30.36;46.03;99309.67;1730710;81;20935;-64